sensor_id;sensor_type;location;lat;lon;timestamp;pressure;altitude;pressure_sealevel;temperature;humidity
49030;BME280;43337;52.070;4.508;2023-02-11T00:01:58;103571.00;;;7.07;100.00
49030;BME280;43337;52.070;4.508;2023-02-11T00:04:25;103575.31;;;7.05;100.00
49030;BME280;43337;52.070;4.508;2023-02-11T00:06:50;103561.34;;;7.03;100.00
49030;BME280;43337;52.070;4.508;2023-02-11T00:09:16;103555.19;;;7.03;100.00
49030;BME280;43337;52.070;4.508;2023-02-11T00:11:41;103567.53;;;7.08;100.00
49030;BME280;43337;52.070;4.508;2023-02-11T00:14:06;103566.59;;;7.05;100.00
49030;BME280;43337;52.070;4.508;2023-02-11T00:16:32;103567.53;;;7.08;100.00
49030;BME280;43337;52.070;4.508;2023-02-11T00:18:59;103566.59;;;7.06;100.00
49030;BME280;43337;52.070;4.508;2023-02-11T00:21:25;103566.59;;;7.06;100.00
49030;BME280;43337;52.070;4.508;2023-02-11T00:23:51;103554.22;;;6.96;100.00
49030;BME280;43337;52.070;4.508;2023-02-11T00:26:28;103540.16;;;6.90;100.00
49030;BME280;43337;52.070;4.508;2023-02-11T00:28:54;103543.72;;;6.95;100.00
49030;BME280;43337;52.070;4.508;2023-02-11T00:31:22;103526.13;;;6.88;100.00
49030;BME280;43337;52.070;4.508;2023-02-11T00:33:47;103548.25;;;7.03;100.00
49030;BME280;43337;52.070;4.508;2023-02-11T00:36:20;103541.22;;;7.02;100.00
49030;BME280;43337;52.070;4.508;2023-02-11T00:38:47;103542.97;;;7.02;100.00
49030;BME280;43337;52.070;4.508;2023-02-11T00:41:13;103556.91;;;7.01;100.00
49030;BME280;43337;52.070;4.508;2023-02-11T00:43:39;103513.00;;;6.84;100.00
49030;BME280;43337;52.070;4.508;2023-02-11T00:46:05;103510.28;;;6.77;100.00
49030;BME280;43337;52.070;4.508;2023-02-11T00:48:31;103547.25;;;6.98;100.00
49030;BME280;43337;52.070;4.508;2023-02-11T00:50:56;103539.34;;;6.94;100.00
49030;BME280;43337;52.070;4.508;2023-02-11T00:53:22;103527.13;;;6.94;100.00
49030;BME280;43337;52.070;4.508;2023-02-11T00:55:47;103536.84;;;7.01;100.00
49030;BME280;43337;52.070;4.508;2023-02-11T00:58:12;103542.09;;;7.03;100.00
49030;BME280;43337;52.070;4.508;2023-02-11T01:00:38;103548.13;;;6.97;100.00
49030;BME280;43337;52.070;4.508;2023-02-11T01:03:04;103548.25;;;7.03;100.00
49030;BME280;43337;52.070;4.508;2023-02-11T01:05:29;103549.00;;;6.98;100.00
49030;BME280;43337;52.070;4.508;2023-02-11T01:07:55;103557.88;;;7.06;100.00
49030;BME280;43337;52.070;4.508;2023-02-11T01:10:20;103558.72;;;7.05;100.00
49030;BME280;43337;52.070;4.508;2023-02-11T01:12:46;103548.19;;;7.02;100.00
49030;BME280;43337;52.070;4.508;2023-02-11T01:15:14;103536.91;;;7.06;100.00
49030;BME280;43337;52.070;4.508;2023-02-11T01:17:41;103528.09;;;7.01;100.00
49030;BME280;43337;52.070;4.508;2023-02-11T01:20:12;103532.47;;;7.02;100.00
49030;BME280;43337;52.070;4.508;2023-02-11T01:22:38;103540.34;;;7.02;100.00
49030;BME280;43337;52.070;4.508;2023-02-11T01:25:05;103529.66;;;6.90;100.00
49030;BME280;43337;52.070;4.508;2023-02-11T01:27:30;103540.34;;;7.02;100.00
49030;BME280;43337;52.070;4.508;2023-02-11T01:29:56;103546.31;;;6.95;100.00
49030;BME280;43337;52.070;4.508;2023-02-11T01:32:21;103535.78;;;6.92;100.00
49030;BME280;43337;52.070;4.508;2023-02-11T01:34:47;103523.56;;;6.89;100.00
49030;BME280;43337;52.070;4.508;2023-02-11T01:37:12;103518.25;;;6.84;100.00
49030;BME280;43337;52.070;4.508;2023-02-11T01:39:38;103497.06;;;6.72;100.00
49030;BME280;43337;52.070;4.508;2023-02-11T01:42:04;103523.50;;;6.84;100.00
49030;BME280;43337;52.070;4.508;2023-02-11T01:44:32;103526.94;;;6.83;100.00
49030;BME280;43337;52.070;4.508;2023-02-11T01:46:59;103505.84;;;6.73;100.00
49030;BME280;43337;52.070;4.508;2023-02-11T01:49:30;103524.19;;;6.76;100.00
49030;BME280;43337;52.070;4.508;2023-02-11T01:52:04;103528.47;;;6.71;100.00
49030;BME280;43337;52.070;4.508;2023-02-11T01:54:38;103525.78;;;6.66;100.00
49030;BME280;43337;52.070;4.508;2023-02-11T01:57:27;103524.00;;;6.64;100.00
49030;BME280;43337;52.070;4.508;2023-02-11T02:07:52;103529.03;;;6.53;100.00
49030;BME280;43337;52.070;4.508;2023-02-11T02:10:23;103516.78;;;6.50;100.00
49030;BME280;43337;52.070;4.508;2023-02-11T02:12:50;103521.97;;;6.49;100.00
49030;BME280;43337;52.070;4.508;2023-02-11T02:15:27;103518.44;;;6.45;100.00
49030;BME280;43337;52.070;4.508;2023-02-11T02:18:02;103511.34;;;6.38;100.00
49030;BME280;43337;52.070;4.508;2023-02-11T02:20:49;103512.31;;;6.43;100.00
49030;BME280;43337;52.070;4.508;2023-02-11T02:28:39;103526.19;;;6.39;100.00
49030;BME280;43337;52.070;4.508;2023-02-11T02:31:26;103508.59;;;6.30;100.00
49030;BME280;43337;52.070;4.508;2023-02-11T02:34:02;103527.88;;;6.37;100.00
49030;BME280;43337;52.070;4.508;2023-02-11T02:36:33;103525.25;;;6.35;100.00
49030;BME280;43337;52.070;4.508;2023-02-11T02:39:18;103534.78;;;6.33;100.00
49030;BME280;43337;52.070;4.508;2023-02-11T02:41:46;103531.28;;;6.31;100.00
49030;BME280;43337;52.070;4.508;2023-02-11T02:44:13;103540.81;;;6.28;100.00
49030;BME280;43337;52.070;4.508;2023-02-11T02:46:38;103537.19;;;6.21;100.00
49030;BME280;43337;52.070;4.508;2023-02-11T02:49:08;103543.34;;;6.23;100.00
49030;BME280;43337;52.070;4.508;2023-02-11T03:02:44;103517.88;;;6.15;100.00
49030;BME280;43337;52.070;4.508;2023-02-11T03:08:07;103507.25;;;6.07;100.00
49030;BME280;43337;52.070;4.508;2023-02-11T03:10:45;103518.72;;;6.14;100.00
49030;BME280;43337;52.070;4.508;2023-02-11T03:13:13;103520.41;;;6.10;100.00
49030;BME280;43337;52.070;4.508;2023-02-11T03:15:47;103514.13;;;6.00;100.00
49030;BME280;43337;52.070;4.508;2023-02-11T03:18:17;103524.69;;;6.06;100.00
49030;BME280;43337;52.070;4.508;2023-02-11T03:20:45;103518.56;;;6.06;100.00
49030;BME280;43337;52.070;4.508;2023-02-11T03:23:21;103515.06;;;6.04;100.00
49030;BME280;43337;52.070;4.508;2023-02-11T03:26:08;103528.97;;;6.03;100.00
49030;BME280;43337;52.070;4.508;2023-02-11T03:34:06;103530.63;;;5.98;100.00
49030;BME280;43337;52.070;4.508;2023-02-11T03:36:43;103499.00;;;5.87;100.00
49030;BME280;43337;52.070;4.508;2023-02-11T03:39:16;103517.47;;;5.93;100.00
49030;BME280;43337;52.070;4.508;2023-02-11T03:41:44;103498.19;;;5.90;100.00
49030;BME280;43337;52.070;4.508;2023-02-11T03:44:14;103488.38;;;5.79;100.00
49030;BME280;43337;52.070;4.508;2023-02-11T03:46:43;103488.44;;;5.82;100.00
49030;BME280;43337;52.070;4.508;2023-02-11T03:49:14;103476.16;;;5.78;100.00
49030;BME280;43337;52.070;4.508;2023-02-11T03:51:41;103476.97;;;5.74;100.00
49030;BME280;43337;52.070;4.508;2023-02-11T03:54:12;103504.13;;;5.82;100.00
49030;BME280;43337;52.070;4.508;2023-02-11T03:56:51;103500.56;;;5.77;100.00
49030;BME280;43337;52.070;4.508;2023-02-11T03:59:17;103505.00;;;5.81;100.00
49030;BME280;43337;52.070;4.508;2023-02-11T04:01:43;103511.16;;;5.85;100.00
49030;BME280;43337;52.070;4.508;2023-02-11T04:04:08;103497.94;;;5.77;100.00
49030;BME280;43337;52.070;4.508;2023-02-11T04:06:34;103481.41;;;5.78;100.00
49030;BME280;43337;52.070;4.508;2023-02-11T04:08:59;103499.03;;;5.88;100.00
49030;BME280;43337;52.070;4.508;2023-02-11T04:11:25;103489.31;;;5.83;100.00
49030;BME280;43337;52.070;4.508;2023-02-11T04:13:50;103493.69;;;5.84;100.00
49030;BME280;43337;52.070;4.508;2023-02-11T04:16:16;103497.25;;;5.86;100.00
49030;BME280;43337;52.070;4.508;2023-02-11T04:18:41;103493.69;;;5.82;100.00
49030;BME280;43337;52.070;4.508;2023-02-11T04:21:06;103487.50;;;5.77;100.00
49030;BME280;43337;52.070;4.508;2023-02-11T04:23:32;103503.16;;;5.77;100.00
49030;BME280;43337;52.070;4.508;2023-02-11T04:25:57;103483.00;;;5.72;100.00
49030;BME280;43337;52.070;4.508;2023-02-11T04:28:23;103484.72;;;5.70;100.00
49030;BME280;43337;52.070;4.508;2023-02-11T04:30:49;103505.81;;;5.79;100.00
49030;BME280;43337;52.070;4.508;2023-02-11T04:33:15;103484.78;;;5.73;100.00
49030;BME280;43337;52.070;4.508;2023-02-11T04:35:41;103498.88;;;5.81;100.00
49030;BME280;43337;52.070;4.508;2023-02-11T04:38:06;103498.88;;;5.81;100.00
49030;BME280;43337;52.070;4.508;2023-02-11T04:40:32;103500.50;;;5.76;100.00
49030;BME280;43337;52.070;4.508;2023-02-11T04:42:57;103494.38;;;5.74;100.00
49030;BME280;43337;52.070;4.508;2023-02-11T04:45:22;103510.28;;;5.84;100.00
49030;BME280;43337;52.070;4.508;2023-02-11T04:47:48;103500.72;;;5.85;100.00
49030;BME280;43337;52.070;4.508;2023-02-11T04:50:13;103491.94;;;5.81;100.00
49030;BME280;43337;52.070;4.508;2023-02-11T04:52:38;103493.69;;;5.84;100.00
49030;BME280;43337;52.070;4.508;2023-02-11T04:55:04;103490.28;;;5.86;100.00
49030;BME280;43337;52.070;4.508;2023-02-11T04:57:30;103485.91;;;5.87;100.00
49030;BME280;43337;52.070;4.508;2023-02-11T04:59:55;103482.34;;;5.83;100.00
49030;BME280;43337;52.070;4.508;2023-02-11T05:02:20;103493.94;;;5.93;100.00
49030;BME280;43337;52.070;4.508;2023-02-11T05:04:46;103471.09;;;5.86;100.00
49030;BME280;43337;52.070;4.508;2023-02-11T05:07:11;103490.47;;;5.96;100.00
49030;BME280;43337;52.070;4.508;2023-02-11T05:09:36;103465.00;;;5.85;100.00
49030;BME280;43337;52.070;4.508;2023-02-11T05:12:02;103483.50;;;5.95;100.00
49030;BME280;43337;52.070;4.508;2023-02-11T05:14:27;103465.06;;;5.88;100.00
49030;BME280;43337;52.070;4.508;2023-02-11T05:16:53;103500.19;;;6.03;100.00
49030;BME280;43337;52.070;4.508;2023-02-11T05:19:18;103488.78;;;5.96;100.00
49030;BME280;43337;52.070;4.508;2023-02-11T05:21:43;103501.09;;;6.03;100.00
49030;BME280;43337;52.070;4.508;2023-02-11T05:24:09;103507.09;;;5.99;100.00
49030;BME280;43337;52.070;4.508;2023-02-11T05:26:35;103486.84;;;5.89;100.00
49030;BME280;43337;52.070;4.508;2023-02-11T05:29:01;103514.13;;;6.02;100.00
49030;BME280;43337;52.070;4.508;2023-02-11T05:31:26;103536.03;;;6.07;100.00
49030;BME280;43337;52.070;4.508;2023-02-11T05:33:52;103536.00;;;6.05;100.00
49030;BME280;43337;52.070;4.508;2023-02-11T05:36:17;103521.97;;;6.00;100.00
49030;BME280;43337;52.070;4.508;2023-02-11T05:38:42;103508.75;;;5.93;100.00
49030;BME280;43337;52.070;4.508;2023-02-11T05:41:09;103528.16;;;6.04;100.00
49030;BME280;43337;52.070;4.508;2023-02-11T05:43:34;103539.59;;;6.10;100.00
49030;BME280;43337;52.070;4.508;2023-02-11T05:46:02;103537.81;;;6.09;100.00
49030;BME280;43337;52.070;4.508;2023-02-11T05:48:27;103529.16;;;6.12;100.00
49030;BME280;43337;52.070;4.508;2023-02-11T05:50:52;103510.63;;;6.00;100.00
49030;BME280;43337;52.070;4.508;2023-02-11T05:53:18;103525.63;;;6.10;100.00
49030;BME280;43337;52.070;4.508;2023-02-11T05:55:43;103508.84;;;5.99;100.00
49030;BME280;43337;52.070;4.508;2023-02-11T05:58:09;103524.81;;;6.13;100.00
49030;BME280;43337;52.070;4.508;2023-02-11T06:00:35;103537.09;;;6.15;100.00
49030;BME280;43337;52.070;4.508;2023-02-11T06:03:00;103524.84;;;6.14;100.00
49030;BME280;43337;52.070;4.508;2023-02-11T06:05:26;103509.97;;;6.11;100.00
49030;BME280;43337;52.070;4.508;2023-02-11T06:07:51;103522.28;;;6.17;100.00
49030;BME280;43337;52.070;4.508;2023-02-11T06:10:18;103516.19;;;6.18;100.00
49030;BME280;43337;52.070;4.508;2023-02-11T06:12:43;103514.56;;;6.25;100.00
49030;BME280;43337;52.070;4.508;2023-02-11T06:15:09;103511.91;;;6.22;100.00
49030;BME280;43337;52.070;4.508;2023-02-11T06:17:34;103511.84;;;6.19;100.00
49030;BME280;43337;52.070;4.508;2023-02-11T06:20:02;103522.44;;;6.26;100.00
49030;BME280;43337;52.070;4.508;2023-02-11T06:22:28;103517.19;;;6.25;100.00
49030;BME280;43337;52.070;4.508;2023-02-11T06:24:53;103516.31;;;6.24;100.00
49030;BME280;43337;52.070;4.508;2023-02-11T06:27:19;103510.06;;;6.18;100.00
49030;BME280;43337;52.070;4.508;2023-02-11T06:29:45;103516.34;;;6.26;100.00
49030;BME280;43337;52.070;4.508;2023-02-11T06:32:11;103524.28;;;6.30;100.00
49030;BME280;43337;52.070;4.508;2023-02-11T06:34:37;103509.28;;;6.22;100.00
49030;BME280;43337;52.070;4.508;2023-02-11T06:37:02;103515.38;;;6.21;100.00
49030;BME280;43337;52.070;4.508;2023-02-11T06:39:28;103500.28;;;6.06;100.00
49030;BME280;43337;52.070;4.508;2023-02-11T06:41:53;103518.88;;;6.21;100.00
49030;BME280;43337;52.070;4.508;2023-02-11T06:44:19;103523.16;;;6.18;100.00
49030;BME280;43337;52.070;4.508;2023-02-11T06:46:44;103526.66;;;6.18;100.00
49030;BME280;43337;52.070;4.508;2023-02-11T06:49:09;103533.66;;;6.19;100.00
49030;BME280;43337;52.070;4.508;2023-02-11T06:51:35;103538.06;;;6.22;100.00
49030;BME280;43337;52.070;4.508;2023-02-11T06:54:01;103531.00;;;6.18;100.00
49030;BME280;43337;52.070;4.508;2023-02-11T06:56:26;103491.47;;;6.02;100.00
49030;BME280;43337;52.070;4.508;2023-02-11T06:58:53;103536.38;;;6.24;100.00
49030;BME280;43337;52.070;4.508;2023-02-11T07:01:20;103535.53;;;6.26;100.00
49030;BME280;43337;52.070;4.508;2023-02-11T07:03:46;103536.44;;;6.28;100.00
49030;BME280;43337;52.070;4.508;2023-02-11T07:06:17;103537.38;;;6.32;100.00
49030;BME280;43337;52.070;4.508;2023-02-11T07:08:43;103546.19;;;6.37;100.00
49030;BME280;43337;52.070;4.508;2023-02-11T07:11:18;103547.97;;;6.38;100.00
49030;BME280;43337;52.070;4.508;2023-02-11T07:13:45;103563.72;;;6.41;100.00
49030;BME280;43337;52.070;4.508;2023-02-11T07:16:14;103559.41;;;6.43;100.00
49030;BME280;43337;52.070;4.508;2023-02-11T07:18:39;103556.81;;;6.45;100.00
49030;BME280;43337;52.070;4.508;2023-02-11T07:21:07;103557.72;;;6.47;100.00
49030;BME280;43337;52.070;4.508;2023-02-11T07:23:33;103560.41;;;6.50;100.00
49030;BME280;43337;52.070;4.508;2023-02-11T07:26:11;103562.19;;;6.52;100.00
49030;BME280;43337;52.070;4.508;2023-02-11T07:28:38;103559.63;;;6.54;100.00
49030;BME280;43337;52.070;4.508;2023-02-11T07:31:11;103555.22;;;6.53;100.00
49030;BME280;43337;52.070;4.508;2023-02-11T07:33:39;103566.63;;;6.56;100.00
49030;BME280;43337;52.070;4.508;2023-02-11T07:36:06;103571.06;;;6.60;100.00
49030;BME280;43337;52.070;4.508;2023-02-11T07:38:33;103575.47;;;6.65;100.00
49030;BME280;43337;52.070;4.508;2023-02-11T07:41:03;103570.22;;;6.63;100.00
49030;BME280;43337;52.070;4.508;2023-02-11T07:43:30;103581.66;;;6.68;100.00
49030;BME280;43337;52.070;4.508;2023-02-11T07:45:55;103571.16;;;6.67;100.00
49030;BME280;43337;52.070;4.508;2023-02-11T07:48:21;103568.63;;;6.71;100.00
49030;BME280;43337;52.070;4.508;2023-02-11T07:50:46;103570.38;;;6.72;100.00
49030;BME280;43337;52.070;4.508;2023-02-11T07:53:11;103568.69;;;6.73;100.00
49030;BME280;43337;52.070;4.508;2023-02-11T07:55:37;103562.59;;;6.75;100.00
49030;BME280;43337;52.070;4.508;2023-02-11T07:58:02;103579.34;;;6.85;100.00
49030;BME280;43337;52.070;4.508;2023-02-11T08:00:27;103566.19;;;6.80;100.00
49030;BME280;43337;52.070;4.508;2023-02-11T08:02:53;103583.78;;;6.89;100.00
49030;BME280;43337;52.070;4.508;2023-02-11T08:05:18;103570.69;;;6.89;100.00
49030;BME280;43337;52.070;4.508;2023-02-11T08:07:44;103540.75;;;6.75;100.00
49030;BME280;43337;52.070;4.508;2023-02-11T08:10:09;103559.25;;;6.84;100.00
49030;BME280;43337;52.070;4.508;2023-02-11T08:12:34;103586.63;;;7.03;100.00
49030;BME280;43337;52.070;4.508;2023-02-11T08:15:00;103570.81;;;6.97;100.00
49030;BME280;43337;52.070;4.508;2023-02-11T08:17:25;103573.53;;;7.03;100.00
49030;BME280;43337;52.070;4.508;2023-02-11T08:19:51;103571.81;;;7.05;100.00
49030;BME280;43337;52.070;4.508;2023-02-11T08:22:16;103576.25;;;7.10;100.00
49030;BME280;43337;52.070;4.508;2023-02-11T08:24:42;103568.41;;;7.09;100.00
49030;BME280;43337;52.070;4.508;2023-02-11T08:27:07;103579.88;;;7.16;100.00
49030;BME280;43337;52.070;4.508;2023-02-11T08:29:33;103585.16;;;7.19;100.00
49030;BME280;43337;52.070;4.508;2023-02-11T08:31:58;103593.03;;;7.19;100.00
49030;BME280;43337;52.070;4.508;2023-02-11T08:34:23;103603.59;;;7.26;100.00
49030;BME280;43337;52.070;4.508;2023-02-11T08:36:49;103609.81;;;7.33;100.00
49030;BME280;43337;52.070;4.508;2023-02-11T08:39:16;103606.31;;;7.34;100.00
49030;BME280;43337;52.070;4.508;2023-02-11T08:41:42;103616.91;;;7.40;100.00
49030;BME280;43337;52.070;4.508;2023-02-11T08:44:08;103623.09;;;7.44;100.00
49030;BME280;43337;52.070;4.508;2023-02-11T08:46:33;103620.47;;;7.44;100.00
49030;BME280;43337;52.070;4.508;2023-02-11T08:48:59;103624.03;;;7.47;100.00
49030;BME280;43337;52.070;4.508;2023-02-11T08:51:26;103617.91;;;7.47;100.00
49030;BME280;43337;52.070;4.508;2023-02-11T08:53:53;103632.03;;;7.56;100.00
49030;BME280;43337;52.070;4.508;2023-02-11T08:56:20;103612.72;;;7.53;100.00
49030;BME280;43337;52.070;4.508;2023-02-11T08:58:47;103619.78;;;7.55;100.00
49030;BME280;43337;52.070;4.508;2023-02-11T09:01:18;103633.00;;;7.65;100.00
49030;BME280;43337;52.070;4.508;2023-02-11T09:03:45;103628.69;;;7.65;100.00
49030;BME280;43337;52.070;4.508;2023-02-11T09:06:11;103632.25;;;7.72;100.00
49030;BME280;43337;52.070;4.508;2023-02-11T09:08:40;103617.38;;;7.71;100.00
49030;BME280;43337;52.070;4.508;2023-02-11T09:11:07;103620.97;;;7.79;100.00
49030;BME280;43337;52.070;4.508;2023-02-11T09:13:33;103628.91;;;7.83;100.00
49030;BME280;43337;52.070;4.508;2023-02-11T09:16:00;103625.41;;;7.83;100.00
49030;BME280;43337;52.070;4.508;2023-02-11T09:18:27;103615.84;;;7.87;100.00
49030;BME280;43337;52.070;4.508;2023-02-11T09:21:03;103629.06;;;7.93;100.00
49030;BME280;43337;52.070;4.508;2023-02-11T09:23:28;103627.34;;;7.96;100.00
49030;BME280;43337;52.070;4.508;2023-02-11T09:25:54;103636.22;;;8.06;100.00
49030;BME280;43337;52.070;4.508;2023-02-11T09:28:19;103636.25;;;8.09;100.00
49030;BME280;43337;52.070;4.508;2023-02-11T09:30:45;103639.81;;;8.13;100.00
49030;BME280;43337;52.070;4.508;2023-02-11T09:33:10;103632.81;;;8.15;100.00
49030;BME280;43337;52.070;4.508;2023-02-11T09:35:36;103637.19;;;8.14;100.00
49030;BME280;43337;52.070;4.508;2023-02-11T09:38:01;103635.47;;;8.16;100.00
49030;BME280;43337;52.070;4.508;2023-02-11T09:40:27;103640.78;;;8.22;100.00
49030;BME280;43337;52.070;4.508;2023-02-11T09:45:28;103636.41;;;8.21;100.00
49030;BME280;43337;52.070;4.508;2023-02-11T09:48:03;103650.50;;;8.29;100.00
49030;BME280;43337;52.070;4.508;2023-02-11T09:50:38;103610.03;;;8.11;100.00
49030;BME280;43337;52.070;4.508;2023-02-11T09:53:22;103654.13;;;8.38;100.00
49030;BME280;43337;52.070;4.508;2023-02-11T09:55:54;103658.59;;;8.42;100.00
49030;BME280;43337;52.070;4.508;2023-02-11T09:58:25;103622.47;;;8.25;100.00
49030;BME280;43337;52.070;4.508;2023-02-11T10:06:38;103643.81;;;8.53;100.00
49030;BME280;43337;52.070;4.508;2023-02-11T10:17:37;103675.56;;;8.73;100.00
49030;BME280;43337;52.070;4.508;2023-02-11T10:20:30;103672.13;;;8.78;100.00
49030;BME280;43337;52.070;4.508;2023-02-11T10:22:59;103687.06;;;8.84;100.00
49030;BME280;43337;52.070;4.508;2023-02-11T10:25:33;103682.69;;;8.88;100.00
49030;BME280;43337;52.070;4.508;2023-02-11T10:27:58;103688.88;;;8.88;100.00
49030;BME280;43337;52.070;4.508;2023-02-11T10:30:35;103693.25;;;8.89;100.00
49030;BME280;43337;52.070;4.508;2023-02-11T10:33:23;103710.84;;;8.96;100.00
49030;BME280;43337;52.070;4.508;2023-02-11T10:35:47;103700.34;;;8.98;100.00
49030;BME280;43337;52.070;4.508;2023-02-11T10:38:13;103702.16;;;9.03;100.00
49030;BME280;43337;52.070;4.508;2023-02-11T10:40:39;103704.78;;;9.07;100.00
49030;BME280;43337;52.070;4.508;2023-02-11T10:43:12;103696.91;;;9.05;100.00
49030;BME280;43337;52.070;4.508;2023-02-11T10:45:42;103696.06;;;9.08;100.00
49030;BME280;43337;52.070;4.508;2023-02-11T10:53:43;103689.94;;;9.09;100.00
49030;BME280;43337;52.070;4.508;2023-02-11T10:56:20;103717.19;;;9.18;100.00
49030;BME280;43337;52.070;4.508;2023-02-11T10:58:56;103720.72;;;9.19;100.00
49030;BME280;43337;52.070;4.508;2023-02-11T11:01:37;103724.22;;;9.19;100.00
49030;BME280;43337;52.070;4.508;2023-02-11T11:04:03;103738.28;;;9.24;100.00
49030;BME280;43337;52.070;4.508;2023-02-11T11:06:30;103730.34;;;9.21;100.00
49030;BME280;43337;52.070;4.508;2023-02-11T11:08:56;103729.47;;;9.21;100.00
49030;BME280;43337;52.070;4.508;2023-02-11T11:11:23;103737.41;;;9.25;100.00
49030;BME280;43337;52.070;4.508;2023-02-11T11:13:54;103725.13;;;9.26;100.00
49030;BME280;43337;52.070;4.508;2023-02-11T11:16:30;103734.78;;;9.25;100.00
49030;BME280;43337;52.070;4.508;2023-02-11T11:24:15;103730.41;;;9.23;100.00
49030;BME280;43337;52.070;4.508;2023-02-11T11:27:02;103740.06;;;9.27;100.00
49030;BME280;43337;52.070;4.508;2023-02-11T11:32:03;103737.41;;;9.24;100.00
49030;BME280;43337;52.070;4.508;2023-02-11T11:34:32;103732.94;;;9.17;100.00
49030;BME280;43337;52.070;4.508;2023-02-11T11:36:59;103736.50;;;9.19;100.00
49030;BME280;43337;52.070;4.508;2023-02-11T11:39:31;103732.03;;;9.12;100.00
49030;BME280;43337;52.070;4.508;2023-02-11T11:42:04;103726.75;;;9.09;100.00
49030;BME280;43337;52.070;4.508;2023-02-11T11:44:35;103724.09;;;9.07;100.00
49030;BME280;43337;52.070;4.508;2023-02-11T11:50:11;103730.25;;;9.09;100.00
49030;BME280;43337;52.070;4.508;2023-02-11T11:52:45;103730.25;;;9.08;100.00
49030;BME280;43337;52.070;4.508;2023-02-11T11:55:24;103735.50;;;9.11;100.00
49030;BME280;43337;52.070;4.508;2023-02-11T11:57:51;103714.38;;;9.00;100.00
49030;BME280;43337;52.070;4.508;2023-02-11T12:09:34;103734.69;;;9.16;100.00
49030;BME280;43337;52.070;4.508;2023-02-11T12:12:22;103746.09;;;9.18;100.00
49030;BME280;43337;52.070;4.508;2023-02-11T12:15:02;103746.06;;;9.12;100.00
49030;BME280;43337;52.070;4.508;2023-02-11T12:25:56;103730.41;;;9.24;100.00
49030;BME280;43337;52.070;4.508;2023-02-11T12:47:58;103739.47;;;9.60;100.00
49030;BME280;43337;52.070;4.508;2023-02-11T12:56:22;103742.19;;;9.71;100.00
49030;BME280;43337;52.070;4.508;2023-02-11T12:58:52;103750.13;;;9.74;100.00
49030;BME280;43337;52.070;4.508;2023-02-11T13:01:22;103729.06;;;9.72;100.00
49030;BME280;43337;52.070;4.508;2023-02-11T13:03:55;103734.34;;;9.78;100.00
49030;BME280;43337;52.070;4.508;2023-02-11T13:06:28;103730.81;;;9.75;100.00
49030;BME280;43337;52.070;4.508;2023-02-11T13:09:00;103739.63;;;9.78;100.00
49030;BME280;43337;52.070;4.508;2023-02-11T13:11:40;103741.41;;;9.81;100.00
49030;BME280;43337;52.070;4.508;2023-02-11T13:14:14;103737.03;;;9.82;100.00
49030;BME280;43337;52.070;4.508;2023-02-11T13:16:45;103699.16;;;9.61;100.00
49030;BME280;43337;52.070;4.508;2023-02-11T13:32:13;103707.16;;;9.78;100.00
49030;BME280;43337;52.070;4.508;2023-02-11T13:37:05;103722.13;;;9.81;100.00
49030;BME280;43337;52.070;4.508;2023-02-11T13:39:36;103715.06;;;9.76;100.00
49030;BME280;43337;52.070;4.508;2023-02-11T13:42:03;103713.31;;;9.77;100.00
49030;BME280;43337;52.070;4.508;2023-02-11T13:44:32;103725.66;;;9.84;100.00
49030;BME280;43337;52.070;4.508;2023-02-11T13:47:03;103728.28;;;9.86;100.00
49030;BME280;43337;52.070;4.508;2023-02-11T13:52:03;103719.50;;;9.85;100.00
49030;BME280;43337;52.070;4.508;2023-02-11T13:54:38;103715.97;;;9.83;100.00
49030;BME280;43337;52.070;4.508;2023-02-11T13:57:31;103716.88;;;9.85;100.00
49030;BME280;43337;52.070;4.508;2023-02-11T14:03:30;103709.81;;;9.76;100.00
49030;BME280;43337;52.070;4.508;2023-02-11T14:19:44;103716.78;;;9.76;100.00
49030;BME280;43337;52.070;4.508;2023-02-11T14:22:29;103719.41;;;9.73;100.00
49030;BME280;43337;52.070;4.508;2023-02-11T14:24:58;103715.91;;;9.74;100.00
49030;BME280;43337;52.070;4.508;2023-02-11T14:35:38;103716.78;;;9.76;100.00
49030;BME280;43337;52.070;4.508;2023-02-11T14:38:48;103717.63;;;9.70;100.00
49030;BME280;43337;52.070;4.508;2023-02-11T14:41:25;103721.16;;;9.71;100.00
49030;BME280;43337;52.070;4.508;2023-02-11T14:43:54;103723.78;;;9.69;100.00
49030;BME280;43337;52.070;4.508;2023-02-11T14:46:22;103726.38;;;9.68;100.00
49030;BME280;43337;52.070;4.508;2023-02-11T14:48:51;103733.41;;;9.66;100.00
49030;BME280;43337;52.070;4.508;2023-02-11T14:51:22;103729.84;;;9.64;100.00
49030;BME280;43337;52.070;4.508;2023-02-11T14:53:53;103728.94;;;9.60;100.00
49030;BME280;43337;52.070;4.508;2023-02-11T14:56:24;103732.47;;;9.59;100.00
49030;BME280;43337;52.070;4.508;2023-02-11T14:58:55;103729.78;;;9.56;100.00
49030;BME280;43337;52.070;4.508;2023-02-11T15:01:39;103728.88;;;9.51;100.00
49030;BME280;43337;52.070;4.508;2023-02-11T15:04:14;103741.19;;;9.55;100.00
49030;BME280;43337;52.070;4.508;2023-02-11T15:06:46;103735.88;;;9.49;100.00
49030;BME280;43337;52.070;4.508;2023-02-11T15:09:17;103742.03;;;9.51;100.00
49030;BME280;43337;52.070;4.508;2023-02-11T15:11:45;103734.91;;;9.39;100.00
49030;BME280;43337;52.070;4.508;2023-02-11T15:14:33;103754.25;;;9.43;100.00
49030;BME280;43337;52.070;4.508;2023-02-11T15:17:05;103751.53;;;9.35;100.00
49030;BME280;43337;52.070;4.508;2023-02-11T15:19:33;103761.19;;;9.38;100.00
49030;BME280;43337;52.070;4.508;2023-02-11T15:22:01;103749.75;;;9.31;100.00
49030;BME280;43337;52.070;4.508;2023-02-11T15:24:33;103751.50;;;9.31;100.00
49030;BME280;43337;52.070;4.508;2023-02-11T15:29:44;103748.78;;;9.24;100.00
49030;BME280;43337;52.070;4.508;2023-02-11T15:32:14;103748.78;;;9.24;100.00
49030;BME280;43337;52.070;4.508;2023-02-11T15:34:40;103753.97;;;9.18;100.00